sensor_id;sensor_type;location;lat;lon;timestamp;pressure;altitude;pressure_sealevel;temperature;humidity
35507;BME280;36461;52.018;21.036;2023-02-20T00:02:01;100445.48;;;1.26;69.53
35507;BME280;36461;52.018;21.036;2023-02-20T00:04:30;100441.42;;;1.30;69.67
35507;BME280;36461;52.018;21.036;2023-02-20T00:06:57;100430.87;;;1.32;70.08
35507;BME280;36461;52.018;21.036;2023-02-20T00:09:25;100426.80;;;1.36;70.15
35507;BME280;36461;52.018;21.036;2023-02-20T00:11:54;100415.51;;;1.29;70.10
35507;BME280;36461;52.018;21.036;2023-02-20T00:14:22;100409.98;;;1.19;70.73
35507;BME280;36461;52.018;21.036;2023-02-20T00:16:50;100413.21;;;1.19;70.76
35507;BME280;36461;52.018;21.036;2023-02-20T00:19:18;100406.92;;;1.22;70.43
35507;BME280;36461;52.018;21.036;2023-02-20T00:21:47;100406.10;;;1.25;70.49
35507;BME280;36461;52.018;21.036;2023-02-20T00:24:16;100398.10;;;1.27;70.54
35507;BME280;36461;52.018;21.036;2023-02-20T00:26:49;100391.96;;;1.28;70.61
35507;BME280;36461;52.018;21.036;2023-02-20T00:29:20;100388.74;;;1.30;70.65
35507;BME280;36461;52.018;21.036;2023-02-20T00:31:53;100388.91;;;1.31;70.31
35507;BME280;36461;52.018;21.036;2023-02-20T00:34:24;100383.48;;;1.36;70.26
35507;BME280;36461;52.018;21.036;2023-02-20T00:36:53;100385.05;;;1.41;70.19
35507;BME280;36461;52.018;21.036;2023-02-20T00:39:21;100385.75;;;1.45;69.95
35507;BME280;36461;52.018;21.036;2023-02-20T00:41:49;100386.64;;;1.50;69.92
35507;BME280;36461;52.018;21.036;2023-02-20T00:44:17;100393.98;;;1.55;69.44
35507;BME280;36461;52.018;21.036;2023-02-20T00:46:47;100396.05;;;1.58;69.27
35507;BME280;36461;52.018;21.036;2023-02-20T00:49:15;100391.11;;;1.61;69.28
35507;BME280;36461;52.018;21.036;2023-02-20T00:51:46;100402.55;;;1.63;69.16
35507;BME280;36461;52.018;21.036;2023-02-20T00:54:14;100400.17;;;1.64;69.05
35507;BME280;36461;52.018;21.036;2023-02-20T00:56:42;100403.77;;;1.67;68.65
35507;BME280;36461;52.018;21.036;2023-02-20T00:59:10;100403.27;;;1.68;68.54
35507;BME280;36461;52.018;21.036;2023-02-20T01:01:39;100401.73;;;1.70;68.61
35507;BME280;36461;52.018;21.036;2023-02-20T01:04:07;100397.98;;;1.71;68.22
35507;BME280;36461;52.018;21.036;2023-02-20T01:06:35;100398.33;;;1.71;68.39
35507;BME280;36461;52.018;21.036;2023-02-20T01:09:03;100397.82;;;1.72;67.89
35507;BME280;36461;52.018;21.036;2023-02-20T01:11:32;100387.08;;;1.74;67.72
35507;BME280;36461;52.018;21.036;2023-02-20T01:14:00;100383.17;;;1.77;67.65
35507;BME280;36461;52.018;21.036;2023-02-20T01:16:29;100383.84;;;1.80;67.47
35507;BME280;36461;52.018;21.036;2023-02-20T01:18:58;100390.86;;;1.81;67.53
35507;BME280;36461;52.018;21.036;2023-02-20T01:21:26;100383.71;;;1.83;67.33
35507;BME280;36461;52.018;21.036;2023-02-20T01:23:54;100382.16;;;1.84;67.31
35507;BME280;36461;52.018;21.036;2023-02-20T01:26:22;100387.63;;;1.85;67.31
35507;BME280;36461;52.018;21.036;2023-02-20T01:28:51;100383.36;;;1.86;67.11
35507;BME280;36461;52.018;21.036;2023-02-20T01:31:18;100382.34;;;1.87;67.50
35507;BME280;36461;52.018;21.036;2023-02-20T01:33:47;100375.02;;;1.87;67.08
35507;BME280;36461;52.018;21.036;2023-02-20T01:36:15;100370.74;;;1.88;67.11
35507;BME280;36461;52.018;21.036;2023-02-20T01:38:43;100362.55;;;1.87;67.11
35507;BME280;36461;52.018;21.036;2023-02-20T01:41:11;100367.33;;;1.87;66.93
35507;BME280;36461;52.018;21.036;2023-02-20T01:43:40;100368.86;;;1.86;67.25
35507;BME280;36461;52.018;21.036;2023-02-20T01:49:10;100377.73;;;1.84;67.05
35507;BME280;36461;52.018;21.036;2023-02-20T01:51:43;100381.33;;;1.84;67.15
35507;BME280;36461;52.018;21.036;2023-02-20T01:54:16;100378.40;;;1.85;67.02
35507;BME280;36461;52.018;21.036;2023-02-20T01:56:46;100379.44;;;1.87;67.05
35507;BME280;36461;52.018;21.036;2023-02-20T01:59:16;100375.02;;;1.89;67.19
35507;BME280;36461;52.018;21.036;2023-02-20T02:01:45;100368.38;;;1.92;67.12
35507;BME280;36461;52.018;21.036;2023-02-20T02:04:14;100360.86;;;1.93;67.24
35507;BME280;36461;52.018;21.036;2023-02-20T02:06:47;100359.68;;;1.95;67.23
35507;BME280;36461;52.018;21.036;2023-02-20T02:12:01;100355.56;;;1.93;67.28
35507;BME280;36461;52.018;21.036;2023-02-20T02:14:30;100357.95;;;1.92;66.92
35507;BME280;36461;52.018;21.036;2023-02-20T02:17:21;100365.29;;;1.90;67.03
35507;BME280;36461;52.018;21.036;2023-02-20T02:42:00;100348.69;;;1.71;67.47
35507;BME280;36461;52.018;21.036;2023-02-20T02:44:50;100344.23;;;1.72;67.87
35507;BME280;36461;52.018;21.036;2023-02-20T02:47:29;100343.73;;;1.73;67.84
35507;BME280;36461;52.018;21.036;2023-02-20T02:50:32;100342.38;;;1.75;67.93
35507;BME280;36461;52.018;21.036;2023-02-20T02:53:07;100347.84;;;1.75;67.75
35507;BME280;36461;52.018;21.036;2023-02-20T02:55:40;100341.88;;;1.76;67.97
35507;BME280;36461;52.018;21.036;2023-02-20T02:58:13;100340.69;;;1.77;68.07
35507;BME280;36461;52.018;21.036;2023-02-20T03:01:05;100343.58;;;1.78;68.14
35507;BME280;36461;52.018;21.036;2023-02-20T03:03:44;100342.55;;;1.80;67.88
35507;BME280;36461;52.018;21.036;2023-02-20T03:06:27;100340.00;;;1.80;67.61
35507;BME280;36461;52.018;21.036;2023-02-20T03:09:11;100344.27;;;1.80;67.92
35507;BME280;36461;52.018;21.036;2023-02-20T03:11:45;100344.43;;;1.79;67.91
35507;BME280;36461;52.018;21.036;2023-02-20T03:14:26;100340.34;;;1.78;67.93
35507;BME280;36461;52.018;21.036;2023-02-20T03:17:29;100342.39;;;1.78;68.01
35507;BME280;36461;52.018;21.036;2023-02-20T03:20:08;100345.80;;;1.80;68.04
35507;BME280;36461;52.018;21.036;2023-02-20T03:22:52;100347.36;;;1.83;68.08
35507;BME280;36461;52.018;21.036;2023-02-20T03:25:36;100346.85;;;1.87;68.24
35507;BME280;36461;52.018;21.036;2023-02-20T03:28:10;100342.08;;;1.90;67.73
35507;BME280;36461;52.018;21.036;2023-02-20T03:31:04;100348.91;;;1.92;68.00
35507;BME280;36461;52.018;21.036;2023-02-20T03:33:48;100345.84;;;1.92;68.08
35507;BME280;36461;52.018;21.036;2023-02-20T03:36:44;100340.39;;;1.91;67.83
35507;BME280;36461;52.018;21.036;2023-02-20T03:39:41;100334.92;;;1.90;67.99
35507;BME280;36461;52.018;21.036;2023-02-20T03:42:34;100333.21;;;1.89;68.10
35507;BME280;36461;52.018;21.036;2023-02-20T03:53:00;100328.41;;;1.79;68.15
35507;BME280;36461;52.018;21.036;2023-02-20T03:55:29;100326.34;;;1.75;68.17
35507;BME280;36461;52.018;21.036;2023-02-20T03:58:02;100326.34;;;1.72;68.42
35507;BME280;36461;52.018;21.036;2023-02-20T04:00:35;100325.99;;;1.70;68.17
35507;BME280;36461;52.018;21.036;2023-02-20T04:03:14;100325.80;;;1.68;68.50
35507;BME280;36461;52.018;21.036;2023-02-20T04:05:49;100328.19;;;1.67;68.68
35507;BME280;36461;52.018;21.036;2023-02-20T04:08:29;100325.81;;;1.65;68.61
35507;BME280;36461;52.018;21.036;2023-02-20T04:11:34;100326.31;;;1.62;68.51
35507;BME280;36461;52.018;21.036;2023-02-20T04:14:04;100326.62;;;1.58;68.65
35507;BME280;36461;52.018;21.036;2023-02-20T04:16:42;100319.95;;;1.53;68.55
35507;BME280;36461;52.018;21.036;2023-02-20T04:19:12;100317.54;;;1.48;68.58
35507;BME280;36461;52.018;21.036;2023-02-20T04:21:45;100311.58;;;1.44;69.04
35507;BME280;36461;52.018;21.036;2023-02-20T04:24:20;100315.64;;;1.41;69.26
35507;BME280;36461;52.018;21.036;2023-02-20T04:26:50;100302.84;;;1.38;68.94
35507;BME280;36461;52.018;21.036;2023-02-20T04:29:19;100301.80;;;1.34;68.82
35507;BME280;36461;52.018;21.036;2023-02-20T04:31:48;100302.48;;;1.30;69.23
35507;BME280;36461;52.018;21.036;2023-02-20T04:34:16;100299.21;;;1.26;69.06
35507;BME280;36461;52.018;21.036;2023-02-20T04:36:45;100298.52;;;1.23;69.20
35507;BME280;36461;52.018;21.036;2023-02-20T04:39:14;100298.66;;;1.18;69.28
35507;BME280;36461;52.018;21.036;2023-02-20T04:41:42;100293.02;;;1.13;69.44
35507;BME280;36461;52.018;21.036;2023-02-20T04:44:10;100293.52;;;1.10;69.78
35507;BME280;36461;52.018;21.036;2023-02-20T04:47:00;100286.52;;;1.07;69.89
35507;BME280;36461;52.018;21.036;2023-02-20T04:49:29;100286.00;;;1.06;69.90
35507;BME280;36461;52.018;21.036;2023-02-20T04:51:58;100280.55;;;1.07;70.11
35507;BME280;36461;52.018;21.036;2023-02-20T04:54:27;100281.57;;;1.08;70.35
35507;BME280;36461;52.018;21.036;2023-02-20T04:56:55;100276.80;;;1.08;70.45
35507;BME280;36461;52.018;21.036;2023-02-20T04:59:24;100279.52;;;1.08;70.44
35507;BME280;36461;52.018;21.036;2023-02-20T05:01:52;100271.85;;;1.07;70.70
35507;BME280;36461;52.018;21.036;2023-02-20T05:04:22;100273.72;;;1.07;70.76
35507;BME280;36461;52.018;21.036;2023-02-20T05:06:52;100279.19;;;1.08;70.95
35507;BME280;36461;52.018;21.036;2023-02-20T05:09:21;100278.69;;;1.11;70.84
35507;BME280;36461;52.018;21.036;2023-02-20T05:11:50;100276.48;;;1.14;70.99
35507;BME280;36461;52.018;21.036;2023-02-20T05:14:20;100274.12;;;1.20;70.98
35507;BME280;36461;52.018;21.036;2023-02-20T05:16:49;100276.89;;;1.26;71.51
35507;BME280;36461;52.018;21.036;2023-02-20T05:19:18;100277.25;;;1.33;71.90
35507;BME280;36461;52.018;21.036;2023-02-20T05:21:46;100268.92;;;1.44;71.97
35507;BME280;36461;52.018;21.036;2023-02-20T05:24:33;100256.52;;;1.55;71.89
35507;BME280;36461;52.018;21.036;2023-02-20T05:27:02;100256.54;;;1.64;72.01
35507;BME280;36461;52.018;21.036;2023-02-20T05:29:30;100252.80;;;1.71;72.25
35507;BME280;36461;52.018;21.036;2023-02-20T05:31:58;100253.83;;;1.78;71.91
35507;BME280;36461;52.018;21.036;2023-02-20T05:34:27;100256.75;;;1.84;72.11
35507;BME280;36461;52.018;21.036;2023-02-20T05:36:55;100255.90;;;1.89;72.25
35507;BME280;36461;52.018;21.036;2023-02-20T05:39:24;100259.83;;;1.95;71.99
35507;BME280;36461;52.018;21.036;2023-02-20T05:41:52;100260.86;;;1.97;71.92
35507;BME280;36461;52.018;21.036;2023-02-20T05:44:20;100262.40;;;2.00;72.00
35507;BME280;36461;52.018;21.036;2023-02-20T05:46:48;100261.20;;;2.03;71.93
35507;BME280;36461;52.018;21.036;2023-02-20T05:49:16;100259.16;;;2.05;71.86
35507;BME280;36461;52.018;21.036;2023-02-20T05:51:45;100256.60;;;2.07;71.65
35507;BME280;36461;52.018;21.036;2023-02-20T05:54:13;100255.23;;;2.07;71.88
35507;BME280;36461;52.018;21.036;2023-02-20T05:56:42;100250.11;;;2.09;71.52
35507;BME280;36461;52.018;21.036;2023-02-20T05:59:11;100231.33;;;2.10;71.75
35507;BME280;36461;52.018;21.036;2023-02-20T06:01:40;100230.98;;;2.11;71.39
35507;BME280;36461;52.018;21.036;2023-02-20T06:04:08;100232.02;;;2.13;71.56
35507;BME280;36461;52.018;21.036;2023-02-20T06:06:39;100233.89;;;2.14;71.58
35507;BME280;36461;52.018;21.036;2023-02-20T06:09:09;100226.73;;;2.14;71.28
35507;BME280;36461;52.018;21.036;2023-02-20T06:11:38;100226.73;;;2.14;71.40
35507;BME280;36461;52.018;21.036;2023-02-20T06:14:06;100228.27;;;2.14;71.38
35507;BME280;36461;52.018;21.036;2023-02-20T06:16:34;100227.75;;;2.13;71.53
35507;BME280;36461;52.018;21.036;2023-02-20T06:19:03;100231.50;;;2.14;71.42
35507;BME280;36461;52.018;21.036;2023-02-20T06:21:32;100232.70;;;2.19;71.51
35507;BME280;36461;52.018;21.036;2023-02-20T06:24:02;100230.14;;;2.24;71.58
35507;BME280;36461;52.018;21.036;2023-02-20T06:26:31;100222.80;;;2.31;71.78
35507;BME280;36461;52.018;21.036;2023-02-20T06:28:59;100214.75;;;2.39;71.65
35507;BME280;36461;52.018;21.036;2023-02-20T06:31:27;100212.69;;;2.45;71.32
35507;BME280;36461;52.018;21.036;2023-02-20T06:33:55;100213.88;;;2.52;71.32
35507;BME280;36461;52.018;21.036;2023-02-20T06:36:26;100207.54;;;2.57;71.35
35507;BME280;36461;52.018;21.036;2023-02-20T06:38:55;100206.67;;;2.62;71.32
35507;BME280;36461;52.018;21.036;2023-02-20T06:41:25;100207.52;;;2.65;71.43
35507;BME280;36461;52.018;21.036;2023-02-20T06:43:54;100204.09;;;2.71;70.86
35507;BME280;36461;52.018;21.036;2023-02-20T06:46:23;100198.44;;;2.75;70.92
35507;BME280;36461;52.018;21.036;2023-02-20T06:48:54;100189.37;;;2.79;70.77
35507;BME280;36461;52.018;21.036;2023-02-20T06:51:31;100185.77;;;2.82;70.70
35507;BME280;36461;52.018;21.036;2023-02-20T06:54:01;100187.97;;;2.88;70.98
35507;BME280;36461;52.018;21.036;2023-02-20T06:56:31;100186.92;;;2.92;70.78
35507;BME280;36461;52.018;21.036;2023-02-20T06:59:01;100186.40;;;2.96;70.78
35507;BME280;36461;52.018;21.036;2023-02-20T07:01:30;100188.26;;;3.02;70.79
35507;BME280;36461;52.018;21.036;2023-02-20T07:04:04;100176.59;;;3.08;70.24
35507;BME280;36461;52.018;21.036;2023-02-20T07:06:32;100173.80;;;3.17;70.27
35507;BME280;36461;52.018;21.036;2023-02-20T07:09:00;100175.64;;;3.28;70.32
35507;BME280;36461;52.018;21.036;2023-02-20T07:11:28;100170.30;;;3.33;69.99
35507;BME280;36461;52.018;21.036;2023-02-20T07:13:56;100163.27;;;3.38;70.06
35507;BME280;36461;52.018;21.036;2023-02-20T07:16:25;100168.52;;;3.45;70.18
35507;BME280;36461;52.018;21.036;2023-02-20T07:18:53;100171.20;;;3.54;70.14
35507;BME280;36461;52.018;21.036;2023-02-20T07:21:22;100168.26;;;3.59;69.70
35507;BME280;36461;52.018;21.036;2023-02-20T07:23:50;100162.78;;;3.61;69.69
35507;BME280;36461;52.018;21.036;2023-02-20T07:26:22;100154.70;;;3.65;69.83
35507;BME280;36461;52.018;21.036;2023-02-20T07:28:51;100157.41;;;3.68;69.72
35507;BME280;36461;52.018;21.036;2023-02-20T07:31:21;100154.98;;;3.71;69.54
35507;BME280;36461;52.018;21.036;2023-02-20T07:33:50;100149.50;;;3.74;69.44
35507;BME280;36461;52.018;21.036;2023-02-20T07:36:18;100151.71;;;3.76;69.52
35507;BME280;36461;52.018;21.036;2023-02-20T07:38:58;100150.69;;;3.75;69.62
35507;BME280;36461;52.018;21.036;2023-02-20T07:41:29;100154.77;;;3.80;69.86
35507;BME280;36461;52.018;21.036;2023-02-20T07:44:05;100151.55;;;3.93;69.57
35507;BME280;36461;52.018;21.036;2023-02-20T07:46:33;100153.88;;;4.03;69.63
35507;BME280;36461;52.018;21.036;2023-02-20T07:49:04;100154.02;;;4.05;69.27
35507;BME280;36461;52.018;21.036;2023-02-20T07:51:32;100159.11;;;4.10;69.58
35507;BME280;36461;52.018;21.036;2023-02-20T07:54:00;100154.31;;;4.11;69.27
35507;BME280;36461;52.018;21.036;2023-02-20T07:56:29;100151.20;;;4.14;69.08
35507;BME280;36461;52.018;21.036;2023-02-20T07:58:57;100149.10;;;4.17;69.30
35507;BME280;36461;52.018;21.036;2023-02-20T08:01:28;100136.55;;;4.22;69.04
35507;BME280;36461;52.018;21.036;2023-02-20T08:03:57;100127.09;;;4.28;69.30
35507;BME280;36461;52.018;21.036;2023-02-20T08:06:25;100123.23;;;4.35;69.24
35507;BME280;36461;52.018;21.036;2023-02-20T08:08:53;100116.02;;;4.36;69.08
35507;BME280;36461;52.018;21.036;2023-02-20T08:11:22;100106.72;;;4.42;69.13
35507;BME280;36461;52.018;21.036;2023-02-20T08:13:50;100105.27;;;4.48;68.80
35507;BME280;36461;52.018;21.036;2023-02-20T08:16:22;100102.92;;;4.59;68.82
35507;BME280;36461;52.018;21.036;2023-02-20T08:18:51;100088.73;;;4.70;68.62
35507;BME280;36461;52.018;21.036;2023-02-20T08:21:19;100078.19;;;4.88;68.83
35507;BME280;36461;52.018;21.036;2023-02-20T08:23:48;100072.19;;;5.01;68.19
35507;BME280;36461;52.018;21.036;2023-02-20T08:26:16;100071.80;;;5.03;68.19
35507;BME280;36461;52.018;21.036;2023-02-20T08:28:46;100064.01;;;5.09;68.00
35507;BME280;36461;52.018;21.036;2023-02-20T08:31:15;100061.86;;;5.15;68.03
35507;BME280;36461;52.018;21.036;2023-02-20T08:33:59;100065.85;;;5.24;67.94
35507;BME280;36461;52.018;21.036;2023-02-20T08:36:27;100063.36;;;5.30;68.05
35507;BME280;36461;52.018;21.036;2023-02-20T08:38:55;100056.80;;;5.31;67.86
35507;BME280;36461;52.018;21.036;2023-02-20T08:41:24;100045.09;;;5.35;68.18
35507;BME280;36461;52.018;21.036;2023-02-20T08:43:53;100042.98;;;5.38;68.15
35507;BME280;36461;52.018;21.036;2023-02-20T08:46:21;100034.80;;;5.33;67.98
35507;BME280;36461;52.018;21.036;2023-02-20T08:48:49;100033.10;;;5.23;67.90
35507;BME280;36461;52.018;21.036;2023-02-20T08:51:18;100033.74;;;5.14;68.08
35507;BME280;36461;52.018;21.036;2023-02-20T08:53:47;100031.70;;;5.02;68.32
35507;BME280;36461;52.018;21.036;2023-02-20T08:56:20;100027.73;;;4.92;68.64
35507;BME280;36461;52.018;21.036;2023-02-20T08:58:48;100026.04;;;4.79;68.98
35507;BME280;36461;52.018;21.036;2023-02-20T09:01:33;100027.11;;;4.75;69.68
35507;BME280;36461;52.018;21.036;2023-02-20T09:04:01;100031.00;;;4.66;70.18
35507;BME280;36461;52.018;21.036;2023-02-20T09:06:30;100032.82;;;4.59;70.78
35507;BME280;36461;52.018;21.036;2023-02-20T09:08:58;100025.08;;;4.48;70.80
35507;BME280;36461;52.018;21.036;2023-02-20T09:11:26;100020.91;;;4.40;71.47
35507;BME280;36461;52.018;21.036;2023-02-20T09:13:54;100011.25;;;4.30;71.60
35507;BME280;36461;52.018;21.036;2023-02-20T09:16:23;100008.25;;;4.24;72.00
35507;BME280;36461;52.018;21.036;2023-02-20T09:18:51;100000.80;;;4.17;72.45
35507;BME280;36461;52.018;21.036;2023-02-20T09:21:24;99991.01;;;4.05;72.49
35507;BME280;36461;52.018;21.036;2023-02-20T09:23:52;99980.15;;;3.97;72.81
35507;BME280;36461;52.018;21.036;2023-02-20T09:26:20;99970.23;;;3.95;73.36
35507;BME280;36461;52.018;21.036;2023-02-20T09:28:48;99962.70;;;3.95;73.57
35507;BME280;36461;52.018;21.036;2023-02-20T09:31:16;99955.88;;;3.92;73.82
35507;BME280;36461;52.018;21.036;2023-02-20T09:33:45;99948.64;;;3.83;74.07
35507;BME280;36461;52.018;21.036;2023-02-20T09:36:18;99944.73;;;3.80;74.40
35507;BME280;36461;52.018;21.036;2023-02-20T09:38:46;99944.92;;;3.78;74.67
35507;BME280;36461;52.018;21.036;2023-02-20T09:44:26;99925.54;;;3.67;75.14
35507;BME280;36461;52.018;21.036;2023-02-20T09:46:55;99907.27;;;3.62;75.35
35507;BME280;36461;52.018;21.036;2023-02-20T09:49:31;99898.88;;;3.63;75.57
35507;BME280;36461;52.018;21.036;2023-02-20T09:52:04;99889.29;;;3.65;76.18
35507;BME280;36461;52.018;21.036;2023-02-20T09:54:46;99873.09;;;3.73;76.09
35507;BME280;36461;52.018;21.036;2023-02-20T09:57:21;99865.35;;;3.76;76.31
35507;BME280;36461;52.018;21.036;2023-02-20T09:59:53;99859.34;;;3.78;76.76
35507;BME280;36461;52.018;21.036;2023-02-20T10:02:34;99843.52;;;3.83;76.74
35507;BME280;36461;52.018;21.036;2023-02-20T10:05:19;99830.52;;;3.83;76.76
35507;BME280;36461;52.018;21.036;2023-02-20T10:07:49;99820.61;;;3.82;77.11
35507;BME280;36461;52.018;21.036;2023-02-20T10:10:21;99813.48;;;3.78;77.27
35507;BME280;36461;52.018;21.036;2023-02-20T10:12:55;99811.58;;;3.66;77.40
35507;BME280;36461;52.018;21.036;2023-02-20T10:23:49;99779.77;;;3.52;78.10
35507;BME280;36461;52.018;21.036;2023-02-20T10:26:36;99772.70;;;3.56;78.41
35507;BME280;36461;52.018;21.036;2023-02-20T10:29:22;99755.10;;;3.55;78.66
35507;BME280;36461;52.018;21.036;2023-02-20T10:32:00;99748.09;;;3.54;79.01
35507;BME280;36461;52.018;21.036;2023-02-20T10:34:43;99743.98;;;3.53;78.80
35507;BME280;36461;52.018;21.036;2023-02-20T10:37:19;99735.59;;;3.55;79.06
35507;BME280;36461;52.018;21.036;2023-02-20T10:40:19;99734.56;;;3.55;79.30
35507;BME280;36461;52.018;21.036;2023-02-20T10:43:03;99731.51;;;3.55;79.46
35507;BME280;36461;52.018;21.036;2023-02-20T10:45:52;99727.59;;;3.51;79.68
35507;BME280;36461;52.018;21.036;2023-02-20T10:48:25;99731.88;;;3.51;79.68
35507;BME280;36461;52.018;21.036;2023-02-20T10:51:14;99719.56;;;3.51;80.00
35507;BME280;36461;52.018;21.036;2023-02-20T10:53:56;99719.39;;;3.50;80.20
35507;BME280;36461;52.018;21.036;2023-02-20T10:59:37;99707.70;;;3.56;80.51
35507;BME280;36461;52.018;21.036;2023-02-20T11:02:16;99699.81;;;3.57;80.39
35507;BME280;36461;52.018;21.036;2023-02-20T11:04:51;99691.66;;;3.53;80.64
35507;BME280;36461;52.018;21.036;2023-02-20T11:07:21;99686.53;;;3.52;80.90
35507;BME280;36461;52.018;21.036;2023-02-20T11:09:50;99676.77;;;3.52;80.93
35507;BME280;36461;52.018;21.036;2023-02-20T11:12:35;99669.41;;;3.52;80.86
35507;BME280;36461;52.018;21.036;2023-02-20T11:15:08;99662.92;;;3.51;81.47
35507;BME280;36461;52.018;21.036;2023-02-20T11:17:39;99647.58;;;3.48;81.37
35507;BME280;36461;52.018;21.036;2023-02-20T11:22:59;99635.96;;;3.47;81.87
35507;BME280;36461;52.018;21.036;2023-02-20T11:25:38;99634.55;;;3.39;81.87
35507;BME280;36461;52.018;21.036;2023-02-20T11:28:21;99620.14;;;3.31;82.21
35507;BME280;36461;52.018;21.036;2023-02-20T11:31:04;99601.98;;;3.32;82.70
35507;BME280;36461;52.018;21.036;2023-02-20T11:33:36;99577.44;;;3.37;82.79
35507;BME280;36461;52.018;21.036;2023-02-20T11:36:24;99575.20;;;3.39;83.01
35507;BME280;36461;52.018;21.036;2023-02-20T11:39:02;99512.95;;;3.39;83.75
35507;BME280;36461;52.018;21.036;2023-02-20T11:41:32;99471.86;;;3.41;83.27
35507;BME280;36461;52.018;21.036;2023-02-20T11:46:32;99464.89;;;3.48;83.64
35507;BME280;36461;52.018;21.036;2023-02-20T11:49:08;99472.88;;;3.50;83.84
35507;BME280;36461;52.018;21.036;2023-02-20T11:51:43;99478.17;;;3.51;83.86
35507;BME280;36461;52.018;21.036;2023-02-20T11:54:21;99463.76;;;3.55;83.88
35507;BME280;36461;52.018;21.036;2023-02-20T11:59:42;99420.86;;;3.70;84.31
35507;BME280;36461;52.018;21.036;2023-02-20T12:04:45;99423.43;;;3.87;84.25
35507;BME280;36461;52.018;21.036;2023-02-20T12:07:53;99401.47;;;3.89;84.42
35507;BME280;36461;52.018;21.036;2023-02-20T12:10:26;99392.05;;;3.90;84.53
35507;BME280;36461;52.018;21.036;2023-02-20T12:12:56;99391.25;;;3.96;84.73
35507;BME280;36461;52.018;21.036;2023-02-20T12:15:27;99376.72;;;4.03;84.65
35507;BME280;36461;52.018;21.036;2023-02-20T12:20:56;99361.98;;;4.11;85.05
35507;BME280;36461;52.018;21.036;2023-02-20T12:23:34;99355.44;;;4.20;85.02
35507;BME280;36461;52.018;21.036;2023-02-20T12:40:36;99271.73;;;4.80;85.20
35507;BME280;36461;52.018;21.036;2023-02-20T12:45:42;99278.91;;;4.94;85.15
35507;BME280;36461;52.018;21.036;2023-02-20T12:59:59;99263.55;;;5.23;85.23
35507;BME280;36461;52.018;21.036;2023-02-20T13:02:38;99253.65;;;5.27;85.07
35507;BME280;36461;52.018;21.036;2023-02-20T13:05:15;99259.41;;;5.35;85.21
35507;BME280;36461;52.018;21.036;2023-02-20T13:07:54;99257.36;;;5.41;84.98
35507;BME280;36461;52.018;21.036;2023-02-20T13:12:52;99260.27;;;5.53;84.92
35507;BME280;36461;52.018;21.036;2023-02-20T13:15:50;99273.30;;;5.60;84.90
35507;BME280;36461;52.018;21.036;2023-02-20T13:20:59;99270.29;;;5.57;84.86
35507;BME280;36461;52.018;21.036;2023-02-20T13:23:32;99267.11;;;5.60;84.85
35507;BME280;36461;52.018;21.036;2023-02-20T13:26:02;99268.39;;;5.58;84.70
35507;BME280;36461;52.018;21.036;2023-02-20T13:28:50;99263.68;;;5.54;84.91
35507;BME280;36461;52.018;21.036;2023-02-20T13:31:21;99262.68;;;5.53;84.75
35507;BME280;36461;52.018;21.036;2023-02-20T13:36:46;99267.24;;;5.55;84.94
35507;BME280;36461;52.018;21.036;2023-02-20T13:49:55;99220.84;;;5.64;84.99
35507;BME280;36461;52.018;21.036;2023-02-20T13:52:46;99213.76;;;5.65;84.96
35507;BME280;36461;52.018;21.036;2023-02-20T13:55:22;99209.67;;;5.69;85.17
35507;BME280;36461;52.018;21.036;2023-02-20T13:58:09;99193.23;;;5.74;85.13
35507;BME280;36461;52.018;21.036;2023-02-20T14:03:21;99191.97;;;5.81;84.97
35507;BME280;36461;52.018;21.036;2023-02-20T14:08:30;99194.77;;;5.84;84.83
35507;BME280;36461;52.018;21.036;2023-02-20T14:11:11;99189.05;;;5.86;84.79
35507;BME280;36461;52.018;21.036;2023-02-20T14:13:42;99178.91;;;5.87;84.69
35507;BME280;36461;52.018;21.036;2023-02-20T14:16:36;99182.09;;;5.90;84.77
35507;BME280;36461;52.018;21.036;2023-02-20T14:19:27;99173.81;;;5.91;84.70
35507;BME280;36461;52.018;21.036;2023-02-20T14:22:22;99177.23;;;5.91;84.67
35507;BME280;36461;52.018;21.036;2023-02-20T14:27:39;99156.69;;;5.94;84.50
35507;BME280;36461;52.018;21.036;2023-02-20T14:30:16;99160.05;;;5.97;84.56
35507;BME280;36461;52.018;21.036;2023-02-20T14:32:48;99150.34;;;6.00;84.47
35507;BME280;36461;52.018;21.036;2023-02-20T14:35:38;99149.08;;;6.02;84.47
35507;BME280;36461;52.018;21.036;2023-02-20T14:40:47;99141.05;;;6.06;84.33
35507;BME280;36461;52.018;21.036;2023-02-20T14:43:23;99140.27;;;6.09;84.30
35507;BME280;36461;52.018;21.036;2023-02-20T14:46:04;99141.67;;;6.13;84.25
35507;BME280;36461;52.018;21.036;2023-02-20T14:48:36;99141.07;;;6.16;84.24
35507;BME280;36461;52.018;21.036;2023-02-20T14:51:22;99139.27;;;6.17;84.16
35507;BME280;36461;52.018;21.036;2023-02-20T14:54:21;99123.58;;;6.20;84.14
35507;BME280;36461;52.018;21.036;2023-02-20T14:56:48;99115.11;;;6.21;84.02
35507;BME280;36461;52.018;21.036;2023-02-20T14:59:30;99113.46;;;6.24;83.98
35507;BME280;36461;52.018;21.036;2023-02-20T15:02:22;99116.65;;;6.27;83.70
35507;BME280;36461;52.018;21.036;2023-02-20T15:05:07;99112.38;;;6.30;83.67
35507;BME280;36461;52.018;21.036;2023-02-20T15:07:37;99102.83;;;6.34;83.72
35507;BME280;36461;52.018;21.036;2023-02-20T15:10:40;99103.23;;;6.37;83.54
35507;BME280;36461;52.018;21.036;2023-02-20T15:13:11;99096.60;;;6.40;83.58
35507;BME280;36461;52.018;21.036;2023-02-20T15:15:45;99100.29;;;6.42;83.42
35507;BME280;36461;52.018;21.036;2023-02-20T15:18:17;99099.48;;;6.45;83.45
35507;BME280;36461;52.018;21.036;2023-02-20T15:20:58;99106.80;;;6.47;83.38
35507;BME280;36461;52.018;21.036;2023-02-20T15:23:32;99103.09;;;6.50;83.39
35507;BME280;36461;52.018;21.036;2023-02-20T15:26:30;99099.38;;;6.53;83.20
35507;BME280;36461;52.018;21.036;2023-02-20T15:31:53;99097.34;;;6.57;83.20